Time;durP1;ratioP1;P1;durP2;ratioP2;P2;SDS_P1;SDS_P2;PMS_P1;PMS_P2;Temp;Humidity;BMP_temperature;BMP_pressure;BME280_temperature;BME280_humidity;BME280_pressure;Samples;Min_cycle;Max_cycle;Signal;HPM_P1;HPM_P2
2021/07/03 00:01:13;;;;;;;16.83;15.40;;;13.40;73.20;;;;;;5015163;29;20481;-68
2021/07/03 00:03:46;;;;;;;16.42;15.13;;;13.30;73.40;;;;;;5011917;29;20053;-66
2021/07/03 00:06:18;;;;;;;16.30;15.00;;;13.30;73.50;;;;;;5011369;29;20131;-67
2021/07/03 00:08:50;;;;;;;16.75;15.45;;;13.30;73.90;;;;;;5007579;29;20249;-67
2021/07/03 00:11:22;;;;;;;15.73;14.43;;;13.30;73.70;;;;;;5014026;29;20141;-67
2021/07/03 00:13:54;;;;;;;16.58;15.23;;;13.20;73.70;;;;;;5012124;29;20050;-68
2021/07/03 00:16:26;;;;;;;16.55;15.10;;;13.20;74.00;;;;;;5011392;29;20057;-69
2021/07/03 00:18:58;;;;;;;16.60;15.30;;;13.10;74.20;;;;;;5013655;29;20128;-68
2021/07/03 00:21:30;;;;;;;16.23;14.95;;;13.10;74.50;;;;;;5023223;29;20050;-69
2021/07/03 00:24:02;;;;;;;16.65;15.25;;;13.10;74.20;;;;;;5009351;29;20057;-68
2021/07/03 00:26:34;;;;;;;16.50;15.20;;;13.10;74.20;;;;;;5012910;29;20590;-68
2021/07/03 00:29:06;;;;;;;16.42;15.13;;;13.10;74.50;;;;;;5013027;29;20046;-68
2021/07/03 00:31:38;;;;;;;16.83;15.43;;;13.00;74.60;;;;;;5011704;29;20085;-68
2021/07/03 00:34:10;;;;;;;17.17;15.63;;;12.90;75.40;;;;;;5011176;29;20046;-68
2021/07/03 00:36:42;;;;;;;17.42;15.93;;;12.90;75.60;;;;;;5011321;29;20053;-68
2021/07/03 00:39:14;;;;;;;17.70;16.10;;;12.90;75.40;;;;;;5024552;29;20045;-68
2021/07/03 00:41:46;;;;;;;16.83;15.45;;;12.90;75.60;;;;;;5011338;29;20072;-69
2021/07/03 00:44:32;;;;;;;16.90;15.50;;;13.00;75.50;;;;;;5010338;29;20953;-68
2021/07/03 00:47:08;;;;;;;16.77;15.18;;;13.00;75.00;;;;;;5011546;29;20156;-68
2021/07/03 00:49:44;;;;;;;16.27;14.73;;;13.00;74.60;;;;;;5025670;29;20045;-68
2021/07/03 00:52:17;;;;;;;16.52;15.05;;;13.00;74.70;;;;;;5016668;29;20493;-68
2021/07/03 00:54:51;;;;;;;16.48;15.07;;;13.10;74.40;;;;;;5009249;29;20042;-68
2021/07/03 00:57:26;;;;;;;16.58;15.27;;;13.00;74.50;;;;;;5016142;29;20041;-69
2021/07/03 01:00:00;;;;;;;16.77;15.48;;;13.00;74.50;;;;;;5014177;29;20330;-69
2021/07/03 01:02:33;;;;;;;17.35;15.85;;;13.00;74.60;;;;;;5001550;29;20046;-68
2021/07/03 01:05:07;;;;;;;16.88;15.45;;;13.00;74.80;;;;;;5008190;29;20160;-68
2021/07/03 01:07:40;;;;;;;17.10;15.80;;;13.00;74.60;;;;;;5020208;29;20061;-68
2021/07/03 01:10:39;;;;;;;17.20;15.80;;;13.00;74.30;;;;;;5012544;29;20129;-68
2021/07/03 01:13:31;;;;;;;17.02;15.52;;;13.00;74.50;;;;;;5017635;29;20049;-68
2021/07/03 01:16:17;;;;;;;16.90;15.50;;;13.00;74.80;;;;;;5016534;29;20042;-68
2021/07/03 01:18:49;;;;;;;16.70;15.30;;;13.00;75.00;;;;;;5016129;29;20145;-68
2021/07/03 01:21:22;;;;;;;16.67;15.38;;;13.00;75.00;;;;;;5011202;29;20053;-68
2021/07/03 01:23:56;;;;;;;16.58;15.27;;;13.00;75.00;;;;;;5032343;29;20058;-68
2021/07/03 01:26:38;;;;;;;16.35;15.07;;;13.00;75.20;;;;;;5024333;29;20054;-67
2021/07/03 01:29:11;;;;;;;17.42;15.93;;;13.00;74.80;;;;;;5011996;29;20129;-68
2021/07/03 01:31:44;;;;;;;17.63;16.02;;;13.00;74.80;;;;;;5030345;29;20058;-67
2021/07/03 01:34:18;;;;;;;17.67;16.27;;;13.00;74.30;;;;;;5010727;29;20057;-67
2021/07/03 01:36:50;;;;;;;16.40;15.00;;;12.90;75.90;;;;;;5016408;29;20046;-67
2021/07/03 01:39:24;;;;;;;17.23;15.82;;;12.90;75.40;;;;;;5015260;29;20050;-68
2021/07/03 01:41:56;;;;;;;16.92;15.52;;;12.90;75.10;;;;;;5025586;29;20046;-68
2021/07/03 01:44:29;;;;;;;17.23;15.93;;;12.90;75.30;;;;;;5009404;29;20045;-68
2021/07/03 01:47:03;;;;;;;16.73;15.32;;;12.90;75.40;;;;;;5030640;29;20578;-69
2021/07/03 01:49:41;;;;;;;17.05;15.60;;;12.80;75.60;;;;;;5016349;29;20077;-68
2021/07/03 01:52:18;;;;;;;17.45;16.08;;;12.80;75.90;;;;;;5015845;29;20259;-68
2021/07/03 01:54:53;;;;;;;17.20;15.73;;;12.80;76.10;;;;;;5009801;29;20058;-68
2021/07/03 01:57:26;;;;;;;16.65;15.30;;;12.70;76.10;;;;;;5017439;29;20057;-68
2021/07/03 02:00:19;;;;;;;17.10;15.55;;;12.70;76.30;;;;;;5014050;29;20530;-68
2021/07/03 02:02:51;;;;;;;17.95;16.52;;;12.70;76.10;;;;;;5014798;29;20077;-68
2021/07/03 02:05:34;;;;;;;17.38;15.88;;;12.70;76.00;;;;;;5014162;29;20486;-67
2021/07/03 02:08:06;;;;;;;17.23;15.82;;;12.70;75.80;;;;;;5021059;29;20173;-68
2021/07/03 02:10:39;;;;;;;17.00;15.70;;;12.60;76.30;;;;;;5019558;29;20037;-68
2021/07/03 02:13:12;;;;;;;17.13;15.70;;;12.60;76.90;;;;;;5020337;29;20045;-68
2021/07/03 02:15:44;;;;;;;16.95;15.65;;;12.60;76.40;;;;;;5029874;29;20064;-68
2021/07/03 02:18:26;;;;;;;16.90;15.57;;;12.60;76.30;;;;;;5020414;29;20140;-68
2021/07/03 02:20:58;;;;;;;17.08;15.73;;;12.60;76.80;;;;;;5019120;29;20073;-69
2021/07/03 02:23:34;;;;;;;17.25;15.85;;;12.60;77.30;;;;;;5034127;29;20057;-69
2021/07/03 02:26:07;;;;;;;17.27;15.88;;;12.50;77.00;;;;;;5034270;29;20125;-68
2021/07/03 02:28:42;;;;;;;17.13;15.65;;;12.50;76.50;;;;;;5030110;29;20581;-69
2021/07/03 02:31:21;;;;;;;17.40;15.93;;;12.50;76.60;;;;;;5018793;29;20049;-67
2021/07/03 02:34:00;;;;;;;17.17;15.77;;;12.50;76.90;;;;;;5020044;29;20050;-68
2021/07/03 02:36:33;;;;;;;17.02;15.63;;;12.50;77.10;;;;;;5018336;29;20386;-68
2021/07/03 02:39:08;;;;;;;16.75;15.30;;;12.50;76.80;;;;;;5008239;29;20057;-69
2021/07/03 02:41:48;;;;;;;16.85;15.45;;;12.50;77.30;;;;;;5013640;29;20144;-69
2021/07/03 02:44:21;;;;;;;16.35;15.05;;;12.40;77.50;;;;;;5028514;29;20049;-68
2021/07/03 02:46:53;;;;;;;16.70;15.38;;;12.30;77.90;;;;;;5013536;29;20053;-68
2021/07/03 02:49:26;;;;;;;17.67;16.17;;;12.20;77.90;;;;;;5032924;29;20053;-68
2021/07/03 02:51:58;;;;;;;17.05;15.65;;;12.20;78.20;;;;;;5014808;29;20052;-68
2021/07/03 02:54:30;;;;;;;17.33;15.82;;;12.20;78.50;;;;;;5014857;29;20089;-68
2021/07/03 02:57:03;;;;;;;16.55;15.25;;;12.10;78.20;;;;;;5027001;29;20038;-69
2021/07/03 02:59:37;;;;;;;17.48;16.08;;;12.10;77.70;;;;;;5012757;29;20482;-68
2021/07/03 03:02:09;;;;;;;16.63;15.32;;;12.20;79.00;;;;;;5030554;29;20053;-69
2021/07/03 03:04:42;;;;;;;16.95;15.55;;;12.20;78.30;;;;;;5018626;29;20048;-69
2021/07/03 03:07:14;;;;;;;16.85;15.55;;;12.10;77.70;;;;;;5017860;29;20129;-70
2021/07/03 03:09:47;;;;;;;17.30;15.85;;;12.20;78.20;;;;;;5018605;29;20065;-68
2021/07/03 03:12:19;;;;;;;17.00;15.60;;;12.20;77.90;;;;;;5014081;29;20053;-68
2021/07/03 03:14:52;;;;;;;17.17;15.75;;;12.20;78.30;;;;;;5013372;29;20110;-69
2021/07/03 03:17:24;;;;;;;17.58;16.08;;;12.20;78.20;;;;;;5016187;29;20045;-69
2021/07/03 03:19:57;;;;;;;16.95;15.55;;;12.20;78.80;;;;;;5003098;29;20125;-68
2021/07/03 03:22:34;;;;;;;16.85;15.45;;;12.10;78.20;;;;;;5032209;29;20641;-68
2021/07/03 03:25:07;;;;;;;18.10;16.17;;;12.10;77.80;;;;;;5015578;29;20060;-69
2021/07/03 03:27:41;;;;;;;16.85;15.45;;;12.10;78.00;;;;;;5017582;29;20739;-69
2021/07/03 03:30:14;;;;;;;17.05;15.52;;;12.20;77.60;;;;;;5031950;29;20057;-68
2021/07/03 03:32:50;;;;;;;17.40;15.93;;;12.10;78.20;;;;;;4999006;29;20054;-68
2021/07/03 03:35:23;;;;;;;17.23;15.73;;;12.10;77.20;;;;;;5013082;29;20578;-71
2021/07/03 03:38:00;;;;;;;17.60;15.93;;;12.10;77.60;;;;;;5029011;29;20045;-69
2021/07/03 03:40:37;;;;;;;17.50;15.93;;;12.10;77.80;;;;;;5012987;29;20056;-68
2021/07/03 03:43:10;;;;;;;17.80;16.20;;;12.10;77.90;;;;;;5018211;29;20057;-70
2021/07/03 03:45:45;;;;;;;17.10;15.68;;;12.10;77.80;;;;;;5031679;29;20478;-69
2021/07/03 03:48:22;;;;;;;17.27;15.80;;;12.10;77.90;;;;;;5019286;29;20056;-68
2021/07/03 03:50:59;;;;;;;17.13;15.73;;;12.10;78.20;;;;;;5031259;29;20056;-68
2021/07/03 03:53:34;;;;;;;17.13;15.65;;;12.00;77.70;;;;;;5019055;29;20728;-69
2021/07/03 03:56:08;;;;;;;16.98;15.48;;;12.00;77.70;;;;;;5017900;29;20061;-69
2021/07/03 03:58:46;;;;;;;17.08;15.77;;;12.00;78.10;;;;;;5013456;29;20045;-69
2021/07/03 04:01:24;;;;;;;17.30;15.80;;;12.10;77.50;;;;;;5013171;29;20041;-68
2021/07/03 04:03:56;;;;;;;17.02;15.55;;;12.10;78.00;;;;;;5012654;29;20050;-70
2021/07/03 04:06:28;;;;;;;16.85;15.50;;;12.10;78.30;;;;;;5013320;29;20101;-69
2021/07/03 04:09:01;;;;;;;16.55;15.25;;;12.10;77.60;;;;;;5017021;29;20057;-69
2021/07/03 04:11:36;;;;;;;16.90;15.60;;;12.10;77.70;;;;;;5010417;29;20574;-69
2021/07/03 04:14:08;;;;;;;17.85;16.23;;;12.10;77.90;;;;;;5013056;29;20153;-69
2021/07/03 04:16:40;;;;;;;17.33;15.85;;;12.10;77.90;;;;;;5015402;29;20049;-68
2021/07/03 04:19:12;;;;;;;17.77;16.27;;;12.10;77.40;;;;;;5013125;29;20060;-68
2021/07/03 04:21:44;;;;;;;17.25;15.63;;;12.10;78.00;;;;;;5030499;29;20050;-69
2021/07/03 04:24:16;;;;;;;17.10;15.60;;;12.00;77.50;;;;;;5013432;29;20083;-70
2021/07/03 04:26:48;;;;;;;17.73;16.17;;;12.00;77.50;;;;;;5016200;29;20849;-68
2021/07/03 04:29:20;;;;;;;16.67;15.35;;;12.00;77.70;;;;;;5011763;29;20054;-69
2021/07/03 04:31:52;;;;;;;17.38;15.93;;;12.10;77.90;;;;;;5014551;29;20050;-69
2021/07/03 04:34:24;;;;;;;17.48;16.08;;;12.00;77.80;;;;;;5011876;29;20098;-70
2021/07/03 04:36:58;;;;;;;17.10;15.70;;;12.00;77.90;;;;;;5009663;29;20133;-69
2021/07/03 04:39:30;;;;;;;17.80;16.30;;;12.10;77.80;;;;;;5013985;29;20542;-68
2021/07/03 04:42:02;;;;;;;17.58;16.08;;;12.20;78.10;;;;;;5013059;29;20042;-69
2021/07/03 04:44:34;;;;;;;17.45;16.02;;;12.40;78.00;;;;;;5012782;29;20073;-69
2021/07/03 04:47:06;;;;;;;17.60;16.08;;;12.50;77.10;;;;;;5012523;29;20053;-69
2021/07/03 04:49:38;;;;;;;18.48;16.88;;;12.60;77.20;;;;;;5014770;29;20113;-70
2021/07/03 04:52:10;;;;;;;17.63;16.23;;;12.70;78.80;;;;;;5013012;29;20082;-69
2021/07/03 04:54:42;;;;;;;17.77;16.35;;;12.80;79.50;;;;;;5016982;29;20053;-69
2021/07/03 04:57:17;;;;;;;18.27;16.77;;;12.90;79.60;;;;;;5017054;29;20041;-71
2021/07/03 04:59:48;;;;;;;18.25;16.73;;;13.00;79.00;;;;;;5012585;29;20160;-70
2021/07/03 05:02:21;;;;;;;19.38;17.63;;;13.10;78.90;;;;;;5011673;29;20165;-70
2021/07/03 05:04:52;;;;;;;19.17;17.65;;;13.20;78.50;;;;;;5012334;29;20503;-69
2021/07/03 05:07:24;;;;;;;19.00;17.45;;;13.30;78.90;;;;;;5010437;29;20054;-69
2021/07/03 05:10:05;;;;;;;19.00;17.35;;;13.50;78.00;;;;;;5026746;29;20064;-69
2021/07/03 05:12:37;;;;;;;19.38;17.67;;;13.60;78.10;;;;;;5012706;29;20049;-69
2021/07/03 05:15:10;;;;;;;18.92;17.35;;;13.70;78.10;;;;;;5011050;29;20054;-70
2021/07/03 05:17:42;;;;;;;19.23;17.63;;;13.80;77.80;;;;;;5010404;29;20102;-69
2021/07/03 05:20:16;;;;;;;19.17;17.58;;;13.90;78.50;;;;;;5014559;29;20120;-70
2021/07/03 05:22:47;;;;;;;21.42;19.40;;;14.00;79.70;;;;;;5016654;29;20033;-70
2021/07/03 05:25:19;;;;;;;19.23;17.58;;;14.10;78.50;;;;;;5011945;29;20057;-69
2021/07/03 05:27:51;;;;;;;20.65;18.70;;;14.20;78.30;;;;;;5012813;29;20073;-72
2021/07/03 05:30:23;;;;;;;19.15;17.55;;;14.30;78.20;;;;;;5011365;29;20057;-71
2021/07/03 05:32:55;;;;;;;21.77;19.77;;;14.50;78.20;;;;;;5012035;29;20076;-71
2021/07/03 05:35:27;;;;;;;18.65;17.15;;;14.60;78.30;;;;;;5009035;29;20057;-71
2021/07/03 05:37:59;;;;;;;19.52;17.75;;;14.70;77.00;;;;;;5013088;29;20574;-70
2021/07/03 05:40:31;;;;;;;20.52;18.63;;;14.80;77.00;;;;;;5012402;29;20081;-70
2021/07/03 05:43:03;;;;;;;20.30;18.55;;;14.90;77.20;;;;;;5009669;29;20519;-70
2021/07/03 05:45:35;;;;;;;21.80;19.80;;;15.00;76.70;;;;;;5009115;29;20773;-71
2021/07/03 05:48:08;;;;;;;21.52;19.63;;;15.10;77.30;;;;;;5014364;29;20049;-70
2021/07/03 05:50:40;;;;;;;24.02;21.67;;;15.20;76.30;;;;;;5011486;29;20525;-71
2021/07/03 05:53:12;;;;;;;20.95;19.15;;;15.30;76.70;;;;;;5011711;29;20132;-72
2021/07/03 05:55:44;;;;;;;21.63;19.67;;;15.50;75.70;;;;;;5021543;29;20042;-70
2021/07/03 05:58:15;;;;;;;19.55;17.90;;;15.60;75.30;;;;;;5012894;29;20037;-71
2021/07/03 06:00:47;;;;;;;20.95;19.13;;;15.60;74.30;;;;;;5011047;29;20045;-72
2021/07/03 06:03:19;;;;;;;18.33;16.73;;;15.70;73.70;;;;;;5013428;29;20106;-72
2021/07/03 06:05:51;;;;;;;22.20;20.25;;;15.80;73.40;;;;;;5010653;29;20053;-71
2021/07/03 06:08:23;;;;;;;19.00;17.50;;;15.90;73.60;;;;;;5012387;29;20467;-72
2021/07/03 06:10:55;;;;;;;21.05;19.30;;;15.90;73.90;;;;;;5012556;29;20152;-72
2021/07/03 06:13:27;;;;;;;20.70;18.98;;;16.10;75.10;;;;;;5010616;29;20057;-71
2021/07/03 06:15:59;;;;;;;22.58;20.58;;;16.20;73.50;;;;;;5010754;29;20097;-70
2021/07/03 06:18:31;;;;;;;22.05;20.15;;;16.30;72.90;;;;;;5015956;29;20075;-71
2021/07/03 06:21:03;;;;;;;19.30;17.80;;;16.40;73.50;;;;;;5015310;29;20049;-72
2021/07/03 06:23:35;;;;;;;20.35;18.60;;;16.60;71.70;;;;;;5011911;29;20938;-72
2021/07/03 06:26:07;;;;;;;21.25;19.45;;;16.60;71.10;;;;;;5011509;29;20465;-72
2021/07/03 06:28:39;;;;;;;21.63;19.70;;;16.80;72.90;;;;;;5011827;29;20628;-70
2021/07/03 06:31:12;;;;;;;24.88;22.42;;;16.90;72.50;;;;;;5010521;29;20046;-73
2021/07/03 06:33:44;;;;;;;18.15;16.75;;;17.10;73.40;;;;;;5024568;29;20137;-69
2021/07/03 06:36:16;;;;;;;20.45;18.63;;;17.20;67.50;;;;;;5011763;29;20125;-71
2021/07/03 06:38:48;;;;;;;21.02;19.33;;;17.30;67.30;;;;;;5015859;29;20073;-73
2021/07/03 06:41:20;;;;;;;22.77;20.88;;;17.20;68.70;;;;;;5016117;29;20101;-71
2021/07/03 06:43:52;;;;;;;24.45;22.08;;;17.30;70.00;;;;;;5014514;29;20442;-71
2021/07/03 06:46:24;;;;;;;19.38;17.70;;;17.40;69.50;;;;;;5014869;29;20430;-70
2021/07/03 06:48:56;;;;;;;20.85;18.92;;;17.40;67.90;;;;;;5015225;29;20054;-72
2021/07/03 06:51:28;;;;;;;18.58;17.17;;;17.50;67.50;;;;;;5018076;29;20460;-71
2021/07/03 06:54:03;;;;;;;22.35;20.33;;;17.40;67.00;;;;;;5013307;29;20137;-72
2021/07/03 06:56:35;;;;;;;24.33;22.13;;;17.40;69.20;;;;;;5012834;29;20086;-73
2021/07/03 06:59:07;;;;;;;23.50;21.45;;;17.60;69.00;;;;;;5015587;29;20053;-72
2021/07/03 07:01:39;;;;;;;21.05;19.05;;;17.80;68.90;;;;;;5015390;29;20115;-72
2021/07/03 07:04:11;;;;;;;20.83;18.90;;;17.90;65.40;;;;;;5014856;29;20048;-73
2021/07/03 07:06:43;;;;;;;20.85;19.23;;;18.10;63.90;;;;;;5012463;29;20132;-70
2021/07/03 07:09:15;;;;;;;20.23;18.58;;;18.20;65.10;;;;;;5014267;29;20145;-70
2021/07/03 07:11:47;;;;;;;19.33;17.83;;;18.30;61.90;;;;;;5012374;29;20049;-70
2021/07/03 07:14:19;;;;;;;18.67;17.17;;;18.40;62.30;;;;;;5010999;29;20148;-71
2021/07/03 07:16:52;;;;;;;18.45;16.85;;;18.50;63.70;;;;;;5009297;29;20146;-72
2021/07/03 07:19:24;;;;;;;18.60;17.00;;;18.50;63.90;;;;;;5010901;29;20034;-73
2021/07/03 07:21:56;;;;;;;19.80;18.17;;;18.60;62.80;;;;;;5014725;29;20133;-73
2021/07/03 07:24:28;;;;;;;18.33;16.92;;;18.60;63.60;;;;;;5011553;29;20781;-72
2021/07/03 07:27:00;;;;;;;19.27;17.67;;;18.70;62.20;;;;;;5013225;29;20050;-73
2021/07/03 07:29:32;;;;;;;20.98;19.15;;;18.80;62.80;;;;;;5027201;29;20128;-74
2021/07/03 07:32:05;;;;;;;18.52;17.08;;;18.90;62.20;;;;;;5015539;29;20052;-73
2021/07/03 07:34:37;;;;;;;20.02;18.38;;;19.00;63.00;;;;;;5017984;29;20041;-74
2021/07/03 07:37:09;;;;;;;21.33;19.55;;;19.00;63.10;;;;;;5029630;29;20073;-72
2021/07/03 07:39:41;;;;;;;20.90;19.10;;;19.20;61.20;;;;;;5015891;29;20563;-73
2021/07/03 07:42:13;;;;;;;21.25;19.45;;;19.30;62.90;;;;;;5014552;29;20049;-73
2021/07/03 07:44:45;;;;;;;30.60;27.48;;;19.50;64.80;;;;;;5018580;29;20061;-73
2021/07/03 07:47:17;;;;;;;22.48;20.67;;;19.70;65.30;;;;;;5013939;29;20692;-73
2021/07/03 07:49:49;;;;;;;19.52;18.08;;;19.70;61.60;;;;;;5013203;29;20081;-74
2021/07/03 07:52:21;;;;;;;23.75;21.55;;;19.80;63.30;;;;;;5015856;29;20621;-73
2021/07/03 07:54:52;;;;;;;25.98;23.50;;;20.00;63.70;;;;;;5012357;29;20136;-73
2021/07/03 07:57:24;;;;;;;21.85;20.02;;;20.00;63.10;;;;;;5013734;29;20133;-73
2021/07/03 07:59:56;;;;;;;24.23;22.30;;;20.10;63.40;;;;;;5018313;29;20041;-72
2021/07/03 08:02:28;;;;;;;23.27;21.35;;;20.20;64.40;;;;;;5012020;29;20118;-73
2021/07/03 08:05:00;;;;;;;22.08;20.17;;;20.30;63.30;;;;;;5012438;29;20042;-73
2021/07/03 08:07:32;;;;;;;21.10;19.38;;;20.30;61.30;;;;;;5012030;29;20152;-72
2021/07/03 08:10:05;;;;;;;22.02;20.23;;;20.30;60.30;;;;;;5009544;29;20042;-73
2021/07/03 08:12:37;;;;;;;23.50;21.55;;;20.40;61.40;;;;;;5013659;29;20046;-73
2021/07/03 08:15:12;;;;;;;22.80;20.92;;;20.40;63.20;;;;;;5011423;29;20124;-73
2021/07/03 08:17:44;;;;;;;21.08;19.38;;;20.60;65.00;;;;;;5011611;29;20562;-71
2021/07/03 08:20:19;;;;;;;22.90;20.95;;;20.60;62.50;;;;;;5018275;29;20487;-73
2021/07/03 08:22:53;;;;;;;20.95;19.35;;;20.70;64.00;;;;;;5011894;29;20069;-74
2021/07/03 08:25:25;;;;;;;21.75;20.02;;;20.80;62.30;;;;;;5012387;29;20507;-74
2021/07/03 08:27:58;;;;;;;23.13;21.33;;;20.80;63.90;;;;;;5014496;29;20053;-73
2021/07/03 08:30:31;;;;;;;21.27;19.48;;;20.90;64.20;;;;;;5012475;29;20050;-74
2021/07/03 08:33:03;;;;;;;23.77;21.67;;;21.00;61.20;;;;;;5015961;29;20053;-74
2021/07/03 08:35:36;;;;;;;23.55;21.48;;;21.10;63.10;;;;;;5016228;29;20136;-75
2021/07/03 08:38:07;;;;;;;22.90;21.10;;;21.10;63.50;;;;;;5013346;29;20069;-73
2021/07/03 08:40:39;;;;;;;22.42;20.58;;;21.20;62.80;;;;;;5012223;29;20102;-73
2021/07/03 08:43:11;;;;;;;21.27;19.58;;;21.30;63.80;;;;;;5018371;29;20077;-73
2021/07/03 08:45:43;;;;;;;21.23;19.52;;;21.30;61.80;;;;;;5010247;29;20514;-73
2021/07/03 08:48:20;;;;;;;22.25;20.48;;;21.40;61.90;;;;;;5013544;29;20856;-73
2021/07/03 08:50:59;;;;;;;21.15;19.55;;;21.40;61.10;;;;;;5014964;29;20917;-72
2021/07/03 08:53:32;;;;;;;21.33;19.73;;;21.40;59.40;;;;;;5011679;29;20136;-73
2021/07/03 08:56:04;;;;;;;21.27;19.58;;;21.40;60.70;;;;;;5016742;29;20073;-73
2021/07/03 08:58:36;;;;;;;21.50;19.70;;;21.40;59.30;;;;;;5013372;29;20105;-73
2021/07/03 09:01:08;;;;;;;21.55;19.75;;;21.40;61.30;;;;;;5014281;29;20069;-73
2021/07/03 09:03:51;;;;;;;21.58;19.85;;;21.50;60.30;;;;;;5012968;29;20061;-72
2021/07/03 09:06:33;;;;;;;23.95;21.52;;;21.50;58.50;;;;;;5013870;29;20106;-72
2021/07/03 09:09:05;;;;;;;21.80;20.00;;;21.60;59.70;;;;;;5012372;29;20053;-72
2021/07/03 09:11:37;;;;;;;21.48;19.77;;;21.70;61.80;;;;;;5012284;29;20085;-72
2021/07/03 09:14:09;;;;;;;21.48;19.52;;;21.80;61.00;;;;;;5011758;29;20125;-72
2021/07/03 09:16:41;;;;;;;21.60;19.83;;;21.90;59.10;;;;;;5016827;29;20249;-72
2021/07/03 09:19:13;;;;;;;21.48;19.55;;;21.90;57.50;;;;;;5009375;29;20133;-73
2021/07/03 09:21:52;;;;;;;20.27;18.52;;;22.00;57.40;;;;;;5010795;29;20122;-73
2021/07/03 09:24:31;;;;;;;20.88;19.05;;;22.00;56.10;;;;;;5008928;29;20141;-73
2021/07/03 09:27:03;;;;;;;20.13;18.52;;;22.10;56.60;;;;;;5013122;29;20087;-73
2021/07/03 09:29:35;;;;;;;144.65;31.52;;;22.10;56.10;;;;;;5026959;29;20069;-72
2021/07/03 09:32:08;;;;;;;25.55;19.65;;;22.00;55.50;;;;;;5010964;29;20045;-72
2021/07/03 09:34:42;;;;;;;20.55;18.65;;;22.00;55.70;;;;;;5010331;29;20069;-73
2021/07/03 09:37:16;;;;;;;21.15;19.20;;;22.10;56.00;;;;;;5012928;29;20122;-71
2021/07/03 09:39:51;;;;;;;19.85;18.35;;;22.00;56.50;;;;;;5010693;29;20505;-72
2021/07/03 09:42:24;;;;;;;20.52;18.73;;;22.10;54.80;;;;;;5029283;29;20045;-73
2021/07/03 09:44:57;;;;;;;23.77;18.50;;;22.20;57.20;;;;;;5006452;29;20046;-73
2021/07/03 09:47:29;;;;;;;20.00;18.50;;;22.30;55.80;;;;;;5011380;29;20102;-73
2021/07/03 09:50:10;;;;;;;20.27;18.63;;;22.30;55.90;;;;;;5010738;29;20050;-73
2021/07/03 09:52:42;;;;;;;23.38;18.50;;;22.30;54.70;;;;;;5013583;29;20954;-73
2021/07/03 09:55:13;;;;;;;27.13;19.63;;;22.30;53.30;;;;;;5007872;29;20562;-71
2021/07/03 09:57:46;;;;;;;20.67;18.88;;;22.40;54.90;;;;;;5013147;29;20057;-71
2021/07/03 10:00:18;;;;;;;24.67;19.30;;;22.50;53.70;;;;;;5011782;29;20125;-72
2021/07/03 10:02:52;;;;;;;19.73;18.23;;;22.50;53.40;;;;;;5010046;29;20042;-72
2021/07/03 10:05:26;;;;;;;20.30;18.60;;;22.50;53.40;;;;;;5011014;29;20298;-73
2021/07/03 10:08:08;;;;;;;20.23;18.63;;;22.50;52.20;;;;;;5010319;29;20065;-74
2021/07/03 10:10:44;;;;;;;20.70;18.90;;;22.60;53.30;;;;;;5010145;29;20072;-73
2021/07/03 10:13:19;;;;;;;20.20;18.60;;;22.70;54.40;;;;;;4999527;29;20146;-73
2021/07/03 10:16:02;;;;;;;19.63;18.13;;;22.70;55.10;;;;;;5010451;29;20666;-71
2021/07/03 10:18:36;;;;;;;19.75;18.27;;;22.70;52.90;;;;;;5013834;29;20042;-73
2021/07/03 10:21:11;;;;;;;20.48;18.58;;;22.80;53.30;;;;;;5011685;29;20070;-73
2021/07/03 10:23:45;;;;;;;20.17;18.58;;;22.80;52.70;;;;;;5014510;29;20046;-72
2021/07/03 10:26:17;;;;;;;19.80;18.30;;;22.80;53.70;;;;;;4996311;29;20140;-73
2021/07/03 10:28:50;;;;;;;20.67;19.00;;;22.80;52.20;;;;;;5011883;29;20699;-73
2021/07/03 10:31:32;;;;;;;19.92;18.42;;;22.90;53.10;;;;;;5012352;29;20050;-73
2021/07/03 10:34:04;;;;;;;20.42;18.80;;;23.00;52.50;;;;;;5013019;29;20657;-73
2021/07/03 10:36:36;;;;;;;20.00;18.40;;;23.00;52.80;;;;;;5016327;29;20173;-72
2021/07/03 10:39:08;;;;;;;19.77;18.17;;;23.10;50.20;;;;;;5015911;29;20065;-73
2021/07/03 10:41:50;;;;;;;19.83;18.13;;;23.10;53.00;;;;;;5014498;29;20049;-72
2021/07/03 10:44:22;;;;;;;19.88;18.25;;;23.20;50.50;;;;;;5013091;29;20834;-73
2021/07/03 10:47:05;;;;;;;19.80;18.30;;;23.20;51.10;;;;;;5013646;29;20184;-72
2021/07/03 10:49:38;;;;;;;20.45;18.77;;;23.20;50.30;;;;;;5014918;29;20128;-72
2021/07/03 10:52:16;;;;;;;20.35;18.52;;;23.30;53.60;;;;;;5015271;29;20069;-74
2021/07/03 10:54:48;;;;;;;29.42;20.23;;;23.40;51.10;;;;;;5014679;29;20069;-73
2021/07/03 10:57:26;;;;;;;20.65;19.05;;;23.50;51.40;;;;;;5016057;29;20129;-73
2021/07/03 11:00:04;;;;;;;20.77;18.83;;;23.50;49.50;;;;;;5014397;29;20072;-72
2021/07/03 11:02:36;;;;;;;20.33;18.73;;;23.60;51.00;;;;;;5029607;29;20062;-72
2021/07/03 11:05:13;;;;;;;20.00;18.27;;;23.60;50.90;;;;;;5013755;29;20072;-72
2021/07/03 11:07:46;;;;;;;20.40;18.70;;;23.60;50.20;;;;;;5014677;29;20076;-72
2021/07/03 11:10:28;;;;;;;48.72;21.00;;;23.60;48.90;;;;;;5014165;29;20069;-72
2021/07/03 11:13:01;;;;;;;20.13;18.60;;;23.60;50.00;;;;;;5017501;29;20069;-72
2021/07/03 11:15:36;;;;;;;19.92;18.40;;;23.70;49.30;;;;;;5014336;29;20045;-72
2021/07/03 11:18:09;;;;;;;20.60;18.75;;;23.80;50.30;;;;;;5015011;29;20124;-72
2021/07/03 11:20:42;;;;;;;20.88;19.02;;;23.90;51.90;;;;;;5032133;29;20750;-73
2021/07/03 11:23:18;;;;;;;19.83;18.33;;;24.00;49.50;;;;;;5013973;29;20102;-72
2021/07/03 11:25:49;;;;;;;20.42;18.75;;;24.10;48.30;;;;;;5016470;29;20133;-73
2021/07/03 11:28:24;;;;;;;20.17;18.60;;;24.20;49.50;;;;;;5011183;29;20118;-72
2021/07/03 11:30:59;;;;;;;20.10;18.60;;;24.30;48.10;;;;;;5013746;29;20149;-73
2021/07/03 11:33:35;;;;;;;20.13;18.63;;;24.40;48.60;;;;;;5016984;29;20054;-73
2021/07/03 11:36:11;;;;;;;;;;;24.50;49.70;;;;;;5014158;29;20056;-72
2021/07/03 11:38:43;;;;;;;20.17;18.58;;;24.60;48.40;;;;;;5031191;29;20015;-72
2021/07/03 11:41:22;;;;;;;21.25;19.38;;;24.60;48.50;;;;;;5018169;29;20643;-74
2021/07/03 11:44:03;;;;;;;20.27;18.75;;;24.70;46.30;;;;;;5018158;29;20049;-73
2021/07/03 11:46:34;;;;;;;21.45;19.70;;;24.80;48.10;;;;;;5019832;29;20582;-72
2021/07/03 11:49:09;;;;;;;21.35;19.80;;;25.10;48.00;;;;;;5014586;29;20136;-71
2021/07/03 11:51:41;;;;;;;21.10;19.40;;;25.10;48.50;;;;;;5011782;29;20082;-72
2021/07/03 11:54:18;;;;;;;20.83;19.15;;;25.20;49.00;;;;;;5012930;29;20935;-71
2021/07/03 11:56:57;;;;;;;21.40;19.70;;;25.40;47.70;;;;;;5011851;29;20127;-74
2021/07/03 11:59:30;;;;;;;20.05;18.55;;;25.50;47.50;;;;;;5016786;29;20471;-72
2021/07/03 12:02:02;;;;;;;20.40;18.90;;;25.50;47.90;;;;;;5013594;29;20041;-72
2021/07/03 12:04:34;;;;;;;20.55;19.02;;;25.60;48.30;;;;;;5014981;29;20037;-73
2021/07/03 12:07:06;;;;;;;20.25;18.75;;;25.60;46.20;;;;;;5015083;29;20132;-72
2021/07/03 12:09:38;;;;;;;20.33;18.85;;;25.60;46.80;;;;;;5017365;29;20071;-72
2021/07/03 12:12:10;;;;;;;20.90;19.30;;;25.60;44.50;;;;;;5017102;29;20038;-71
2021/07/03 12:14:44;;;;;;;20.83;19.23;;;25.60;44.90;;;;;;5016981;29;20161;-73
2021/07/03 12:17:19;;;;;;;21.23;19.63;;;25.70;46.20;;;;;;5014352;29;20075;-72
2021/07/03 12:20:11;;;;;;;20.98;19.48;;;25.70;44.70;;;;;;5015022;29;20073;-72
2021/07/03 12:22:57;;;;;;;21.00;19.40;;;25.70;44.30;;;;;;5015081;29;20057;-71
2021/07/03 12:25:31;;;;;;;21.13;19.52;;;25.80;46.20;;;;;;5018608;29;20045;-72
2021/07/03 12:28:05;;;;;;;21.10;19.50;;;26.00;46.10;;;;;;5015438;29;20064;-72
2021/07/03 12:30:37;;;;;;;20.10;18.60;;;26.10;45.00;;;;;;5016321;29;20069;-72
2021/07/03 12:33:11;;;;;;;20.63;19.13;;;26.10;44.10;;;;;;5010407;29;20041;-72
2021/07/03 12:35:52;;;;;;;20.20;18.65;;;26.20;42.50;;;;;;5012068;29;20077;-74
2021/07/03 12:38:26;;;;;;;20.30;18.80;;;26.20;39.70;;;;;;5016922;29;20633;-74
2021/07/03 12:41:00;;;;;;;20.42;18.83;;;26.30;39.60;;;;;;5012745;29;20113;-74
2021/07/03 12:43:34;;;;;;;19.40;18.00;;;26.50;40.30;;;;;;5019305;29;20140;-74
2021/07/03 12:46:06;;;;;;;19.20;17.80;;;26.50;38.80;;;;;;5024077;29;20055;-75
2021/07/03 12:48:40;;;;;;;19.50;18.10;;;26.50;41.40;;;;;;5473755;23;20381;-76
2021/07/03 12:51:18;;;;;;;20.00;18.60;;;26.60;38.00;;;;;;4978167;29;20122;-74
2021/07/03 12:53:57;;;;;;;19.80;18.30;;;26.60;39.10;;;;;;4976841;29;20046;-75
2021/07/03 12:56:30;;;;;;;19.73;18.33;;;26.50;38.40;;;;;;4980517;29;20047;-74
2021/07/03 12:59:04;;;;;;;20.27;18.67;;;26.30;37.60;;;;;;4978660;29;20127;-73
2021/07/03 13:01:38;;;;;;;19.83;18.33;;;26.20;39.60;;;;;;4979820;29;20054;-73